sensor_id;sensor_type;location;lat;lon;timestamp;P1;durP1;ratioP1;P2;durP2;ratioP2
39982;SDS011;25670;44.782;10.356;2024-02-23T00:00:23;118.40;;;47.33;;
39982;SDS011;25670;44.782;10.356;2024-02-23T00:02:49;113.95;;;48.45;;
39982;SDS011;25670;44.782;10.356;2024-02-23T00:05:16;113.55;;;46.50;;
39982;SDS011;25670;44.782;10.356;2024-02-23T00:07:42;119.75;;;49.20;;
39982;SDS011;25670;44.782;10.356;2024-02-23T00:10:09;113.93;;;48.15;;
39982;SDS011;25670;44.782;10.356;2024-02-23T00:12:35;115.20;;;47.22;;
39982;SDS011;25670;44.782;10.356;2024-02-23T00:15:02;109.20;;;45.45;;
39982;SDS011;25670;44.782;10.356;2024-02-23T00:17:28;110.85;;;46.70;;
39982;SDS011;25670;44.782;10.356;2024-02-23T00:19:55;110.70;;;48.53;;
39982;SDS011;25670;44.782;10.356;2024-02-23T00:22:21;100.60;;;44.78;;
39982;SDS011;25670;44.782;10.356;2024-02-23T00:24:48;107.20;;;43.75;;
39982;SDS011;25670;44.782;10.356;2024-02-23T00:27:14;96.65;;;43.53;;
39982;SDS011;25670;44.782;10.356;2024-02-23T00:29:41;93.90;;;43.05;;
39982;SDS011;25670;44.782;10.356;2024-02-23T00:32:07;102.70;;;42.70;;
39982;SDS011;25670;44.782;10.356;2024-02-23T00:34:34;88.35;;;40.33;;
39982;SDS011;25670;44.782;10.356;2024-02-23T00:37:00;94.43;;;41.97;;
39982;SDS011;25670;44.782;10.356;2024-02-23T00:39:27;90.72;;;41.63;;
39982;SDS011;25670;44.782;10.356;2024-02-23T00:41:53;87.28;;;41.67;;
39982;SDS011;25670;44.782;10.356;2024-02-23T00:44:20;83.25;;;40.50;;
39982;SDS011;25670;44.782;10.356;2024-02-23T00:46:46;86.40;;;40.13;;
39982;SDS011;25670;44.782;10.356;2024-02-23T00:49:12;86.35;;;40.10;;
39982;SDS011;25670;44.782;10.356;2024-02-23T00:51:39;85.43;;;39.92;;
39982;SDS011;25670;44.782;10.356;2024-02-23T00:54:05;100.57;;;40.15;;
39982;SDS011;25670;44.782;10.356;2024-02-23T00:56:34;85.60;;;38.70;;
39982;SDS011;25670;44.782;10.356;2024-02-23T00:59:00;92.03;;;40.33;;
39982;SDS011;25670;44.782;10.356;2024-02-23T01:01:27;91.35;;;40.45;;
39982;SDS011;25670;44.782;10.356;2024-02-23T01:03:54;92.50;;;41.10;;
39982;SDS011;25670;44.782;10.356;2024-02-23T01:06:20;85.13;;;39.83;;
39982;SDS011;25670;44.782;10.356;2024-02-23T01:08:47;84.28;;;35.83;;
39982;SDS011;25670;44.782;10.356;2024-02-23T01:11:13;74.28;;;33.50;;
39982;SDS011;25670;44.782;10.356;2024-02-23T01:13:39;73.43;;;34.42;;
39982;SDS011;25670;44.782;10.356;2024-02-23T01:16:06;66.47;;;31.88;;
39982;SDS011;25670;44.782;10.356;2024-02-23T01:18:32;65.38;;;32.92;;
39982;SDS011;25670;44.782;10.356;2024-02-23T01:20:59;64.57;;;32.72;;
39982;SDS011;25670;44.782;10.356;2024-02-23T01:23:25;63.72;;;31.20;;
39982;SDS011;25670;44.782;10.356;2024-02-23T01:25:52;64.43;;;30.27;;
39982;SDS011;25670;44.782;10.356;2024-02-23T01:28:19;57.22;;;28.83;;
39982;SDS011;25670;44.782;10.356;2024-02-23T01:30:45;59.63;;;28.90;;
39982;SDS011;25670;44.782;10.356;2024-02-23T01:33:11;57.88;;;27.27;;
39982;SDS011;25670;44.782;10.356;2024-02-23T01:35:38;52.92;;;26.60;;
39982;SDS011;25670;44.782;10.356;2024-02-23T01:38:04;56.33;;;26.85;;
39982;SDS011;25670;44.782;10.356;2024-02-23T01:40:30;60.03;;;30.27;;
39982;SDS011;25670;44.782;10.356;2024-02-23T01:43:03;54.78;;;27.40;;
39982;SDS011;25670;44.782;10.356;2024-02-23T01:45:30;53.30;;;28.13;;
39982;SDS011;25670;44.782;10.356;2024-02-23T01:47:57;60.13;;;29.42;;
39982;SDS011;25670;44.782;10.356;2024-02-23T01:50:25;62.92;;;31.77;;
39982;SDS011;25670;44.782;10.356;2024-02-23T01:52:52;62.45;;;29.85;;
39982;SDS011;25670;44.782;10.356;2024-02-23T01:55:20;63.85;;;30.48;;
39982;SDS011;25670;44.782;10.356;2024-02-23T01:57:47;59.05;;;29.73;;
39982;SDS011;25670;44.782;10.356;2024-02-23T02:00:15;55.08;;;27.98;;
39982;SDS011;25670;44.782;10.356;2024-02-23T02:02:49;56.20;;;27.30;;
39982;SDS011;25670;44.782;10.356;2024-02-23T02:05:16;53.83;;;26.70;;
39982;SDS011;25670;44.782;10.356;2024-02-23T02:07:42;49.97;;;24.83;;
39982;SDS011;25670;44.782;10.356;2024-02-23T02:10:09;55.33;;;26.10;;
39982;SDS011;25670;44.782;10.356;2024-02-23T02:12:35;48.03;;;26.92;;
39982;SDS011;25670;44.782;10.356;2024-02-23T02:15:02;53.13;;;26.35;;
39982;SDS011;25670;44.782;10.356;2024-02-23T02:17:29;49.70;;;25.88;;
39982;SDS011;25670;44.782;10.356;2024-02-23T02:19:55;49.63;;;24.42;;
39982;SDS011;25670;44.782;10.356;2024-02-23T02:22:24;47.55;;;25.35;;
39982;SDS011;25670;44.782;10.356;2024-02-23T02:24:50;41.42;;;24.50;;
39982;SDS011;25670;44.782;10.356;2024-02-23T02:27:17;45.00;;;25.08;;
39982;SDS011;25670;44.782;10.356;2024-02-23T02:29:43;44.05;;;24.00;;
39982;SDS011;25670;44.782;10.356;2024-02-23T02:32:09;49.35;;;23.55;;
39982;SDS011;25670;44.782;10.356;2024-02-23T02:34:35;48.30;;;23.10;;
39982;SDS011;25670;44.782;10.356;2024-02-23T02:37:01;47.15;;;21.95;;
39982;SDS011;25670;44.782;10.356;2024-02-23T02:39:27;44.65;;;21.55;;
39982;SDS011;25670;44.782;10.356;2024-02-23T02:41:54;42.53;;;21.65;;
39982;SDS011;25670;44.782;10.356;2024-02-23T02:44:20;41.88;;;20.60;;
39982;SDS011;25670;44.782;10.356;2024-02-23T02:46:46;39.85;;;21.52;;
39982;SDS011;25670;44.782;10.356;2024-02-23T02:49:12;32.95;;;19.80;;
39982;SDS011;25670;44.782;10.356;2024-02-23T02:51:38;34.00;;;20.15;;
39982;SDS011;25670;44.782;10.356;2024-02-23T02:54:05;37.95;;;21.42;;
39982;SDS011;25670;44.782;10.356;2024-02-23T02:56:31;37.08;;;19.50;;
39982;SDS011;25670;44.782;10.356;2024-02-23T02:58:58;33.83;;;18.85;;
39982;SDS011;25670;44.782;10.356;2024-02-23T03:01:24;36.92;;;20.17;;
39982;SDS011;25670;44.782;10.356;2024-02-23T03:03:51;35.00;;;19.65;;
39982;SDS011;25670;44.782;10.356;2024-02-23T03:06:18;29.00;;;16.95;;
39982;SDS011;25670;44.782;10.356;2024-02-23T03:08:44;31.67;;;17.38;;
39982;SDS011;25670;44.782;10.356;2024-02-23T03:11:11;32.38;;;16.90;;
39982;SDS011;25670;44.782;10.356;2024-02-23T03:13:37;23.13;;;15.68;;
39982;SDS011;25670;44.782;10.356;2024-02-23T03:16:03;31.90;;;16.50;;
39982;SDS011;25670;44.782;10.356;2024-02-23T03:18:30;28.20;;;16.58;;
39982;SDS011;25670;44.782;10.356;2024-02-23T03:20:56;33.03;;;16.50;;
39982;SDS011;25670;44.782;10.356;2024-02-23T03:23:22;29.70;;;16.80;;
39982;SDS011;25670;44.782;10.356;2024-02-23T03:25:48;24.65;;;15.55;;
39982;SDS011;25670;44.782;10.356;2024-02-23T03:28:14;27.38;;;17.60;;
39982;SDS011;25670;44.782;10.356;2024-02-23T03:30:41;26.38;;;16.25;;
39982;SDS011;25670;44.782;10.356;2024-02-23T03:33:07;34.95;;;16.65;;
39982;SDS011;25670;44.782;10.356;2024-02-23T03:35:33;27.55;;;16.52;;
39982;SDS011;25670;44.782;10.356;2024-02-23T03:37:59;25.17;;;14.00;;
39982;SDS011;25670;44.782;10.356;2024-02-23T03:40:25;20.00;;;13.80;;
39982;SDS011;25670;44.782;10.356;2024-02-23T03:42:52;25.10;;;14.25;;
39982;SDS011;25670;44.782;10.356;2024-02-23T03:45:18;22.58;;;13.13;;
39982;SDS011;25670;44.782;10.356;2024-02-23T03:47:44;21.33;;;13.65;;
39982;SDS011;25670;44.782;10.356;2024-02-23T03:50:10;17.20;;;13.10;;
39982;SDS011;25670;44.782;10.356;2024-02-23T03:52:37;16.33;;;11.90;;
39982;SDS011;25670;44.782;10.356;2024-02-23T03:55:03;19.02;;;12.73;;
39982;SDS011;25670;44.782;10.356;2024-02-23T03:57:30;16.77;;;11.27;;
39982;SDS011;25670;44.782;10.356;2024-02-23T03:59:56;17.00;;;12.05;;
39982;SDS011;25670;44.782;10.356;2024-02-23T04:02:23;19.35;;;11.45;;
39982;SDS011;25670;44.782;10.356;2024-02-23T04:04:49;18.63;;;12.75;;
39982;SDS011;25670;44.782;10.356;2024-02-23T04:07:16;19.27;;;11.50;;
39982;SDS011;25670;44.782;10.356;2024-02-23T04:09:42;14.18;;;11.48;;
39982;SDS011;25670;44.782;10.356;2024-02-23T04:12:08;19.90;;;10.70;;
39982;SDS011;25670;44.782;10.356;2024-02-23T04:14:35;15.73;;;10.65;;
39982;SDS011;25670;44.782;10.356;2024-02-23T04:17:02;14.02;;;10.13;;
39982;SDS011;25670;44.782;10.356;2024-02-23T04:19:29;12.82;;;10.32;;
39982;SDS011;25670;44.782;10.356;2024-02-23T04:21:55;15.68;;;10.80;;
39982;SDS011;25670;44.782;10.356;2024-02-23T04:24:22;16.00;;;10.23;;
39982;SDS011;25670;44.782;10.356;2024-02-23T04:26:48;14.82;;;10.57;;
39982;SDS011;25670;44.782;10.356;2024-02-23T04:29:15;11.57;;;10.38;;
39982;SDS011;25670;44.782;10.356;2024-02-23T04:31:41;13.25;;;9.82;;
39982;SDS011;25670;44.782;10.356;2024-02-23T04:34:08;10.40;;;9.13;;
39982;SDS011;25670;44.782;10.356;2024-02-23T04:36:34;14.50;;;9.10;;
39982;SDS011;25670;44.782;10.356;2024-02-23T04:39:00;13.23;;;9.73;;
39982;SDS011;25670;44.782;10.356;2024-02-23T04:41:26;10.27;;;9.25;;
39982;SDS011;25670;44.782;10.356;2024-02-23T04:43:52;8.95;;;8.05;;
39982;SDS011;25670;44.782;10.356;2024-02-23T04:46:25;9.75;;;7.45;;
39982;SDS011;25670;44.782;10.356;2024-02-23T04:48:52;8.70;;;7.90;;
39982;SDS011;25670;44.782;10.356;2024-02-23T04:51:18;20.40;;;8.70;;
39982;SDS011;25670;44.782;10.356;2024-02-23T04:53:44;9.32;;;8.43;;
39982;SDS011;25670;44.782;10.356;2024-02-23T04:56:12;8.48;;;7.78;;
39982;SDS011;25670;44.782;10.356;2024-02-23T04:58:38;10.98;;;7.65;;
39982;SDS011;25670;44.782;10.356;2024-02-23T05:01:06;8.50;;;7.80;;
39982;SDS011;25670;44.782;10.356;2024-02-23T05:03:32;7.22;;;6.53;;
39982;SDS011;25670;44.782;10.356;2024-02-23T05:05:59;13.63;;;7.53;;
39982;SDS011;25670;44.782;10.356;2024-02-23T05:08:25;8.18;;;7.47;;
39982;SDS011;25670;44.782;10.356;2024-02-23T05:10:53;9.13;;;6.40;;
39982;SDS011;25670;44.782;10.356;2024-02-23T05:13:19;12.10;;;7.18;;
39982;SDS011;25670;44.782;10.356;2024-02-23T05:15:45;12.40;;;7.32;;
39982;SDS011;25670;44.782;10.356;2024-02-23T05:18:12;12.52;;;7.10;;
39982;SDS011;25670;44.782;10.356;2024-02-23T05:20:38;9.77;;;7.88;;
39982;SDS011;25670;44.782;10.356;2024-02-23T05:23:05;8.13;;;6.55;;
39982;SDS011;25670;44.782;10.356;2024-02-23T05:25:31;7.43;;;6.78;;
39982;SDS011;25670;44.782;10.356;2024-02-23T05:27:57;7.72;;;6.85;;
39982;SDS011;25670;44.782;10.356;2024-02-23T05:30:24;7.78;;;6.88;;
39982;SDS011;25670;44.782;10.356;2024-02-23T05:32:52;10.70;;;6.95;;
39982;SDS011;25670;44.782;10.356;2024-02-23T05:35:19;6.78;;;6.28;;
39982;SDS011;25670;44.782;10.356;2024-02-23T05:37:45;12.10;;;6.60;;
39982;SDS011;25670;44.782;10.356;2024-02-23T05:40:11;9.70;;;7.13;;
39982;SDS011;25670;44.782;10.356;2024-02-23T05:42:38;9.85;;;6.97;;
39982;SDS011;25670;44.782;10.356;2024-02-23T05:45:05;12.00;;;6.75;;
39982;SDS011;25670;44.782;10.356;2024-02-23T05:47:37;8.93;;;7.10;;
39982;SDS011;25670;44.782;10.356;2024-02-23T05:50:04;14.88;;;7.00;;
39982;SDS011;25670;44.782;10.356;2024-02-23T05:52:32;16.52;;;7.15;;
39982;SDS011;25670;44.782;10.356;2024-02-23T05:54:58;7.70;;;7.03;;
39982;SDS011;25670;44.782;10.356;2024-02-23T05:57:29;7.90;;;7.10;;
39982;SDS011;25670;44.782;10.356;2024-02-23T05:59:55;11.90;;;8.30;;
39982;SDS011;25670;44.782;10.356;2024-02-23T06:02:22;11.00;;;9.07;;
39982;SDS011;25670;44.782;10.356;2024-02-23T06:04:49;17.38;;;10.88;;
39982;SDS011;25670;44.782;10.356;2024-02-23T06:07:15;15.18;;;11.38;;
39982;SDS011;25670;44.782;10.356;2024-02-23T06:09:42;20.75;;;11.63;;
39982;SDS011;25670;44.782;10.356;2024-02-23T06:12:09;18.50;;;12.05;;
39982;SDS011;25670;44.782;10.356;2024-02-23T06:14:35;20.33;;;11.95;;
39982;SDS011;25670;44.782;10.356;2024-02-23T06:17:02;26.60;;;12.85;;
39982;SDS011;25670;44.782;10.356;2024-02-23T06:19:29;23.45;;;12.45;;
39982;SDS011;25670;44.782;10.356;2024-02-23T06:21:56;22.40;;;13.80;;
39982;SDS011;25670;44.782;10.356;2024-02-23T06:24:22;21.88;;;13.27;;
39982;SDS011;25670;44.782;10.356;2024-02-23T06:26:48;24.10;;;14.95;;
39982;SDS011;25670;44.782;10.356;2024-02-23T06:29:15;18.52;;;14.48;;
39982;SDS011;25670;44.782;10.356;2024-02-23T06:31:41;20.02;;;13.65;;
39982;SDS011;25670;44.782;10.356;2024-02-23T06:34:08;15.93;;;13.18;;
39982;SDS011;25670;44.782;10.356;2024-02-23T06:36:34;25.25;;;14.68;;
39982;SDS011;25670;44.782;10.356;2024-02-23T06:39:01;19.90;;;14.10;;
39982;SDS011;25670;44.782;10.356;2024-02-23T06:41:28;27.33;;;15.48;;
39982;SDS011;25670;44.782;10.356;2024-02-23T06:43:55;19.58;;;15.18;;
39982;SDS011;25670;44.782;10.356;2024-02-23T06:46:22;24.55;;;15.38;;
39982;SDS011;25670;44.782;10.356;2024-02-23T06:48:48;26.50;;;15.70;;
39982;SDS011;25670;44.782;10.356;2024-02-23T06:51:14;30.10;;;16.38;;
39982;SDS011;25670;44.782;10.356;2024-02-23T06:53:42;26.65;;;17.25;;
39982;SDS011;25670;44.782;10.356;2024-02-23T06:56:08;28.20;;;17.13;;
39982;SDS011;25670;44.782;10.356;2024-02-23T06:58:34;27.40;;;17.20;;
39982;SDS011;25670;44.782;10.356;2024-02-23T07:01:01;28.40;;;17.33;;
39982;SDS011;25670;44.782;10.356;2024-02-23T07:03:29;27.48;;;19.80;;
39982;SDS011;25670;44.782;10.356;2024-02-23T07:05:56;28.45;;;20.02;;
39982;SDS011;25670;44.782;10.356;2024-02-23T07:08:22;30.77;;;19.60;;
39982;SDS011;25670;44.782;10.356;2024-02-23T07:10:48;36.33;;;22.08;;
39982;SDS011;25670;44.782;10.356;2024-02-23T07:13:15;45.58;;;22.85;;
39982;SDS011;25670;44.782;10.356;2024-02-23T07:15:42;35.67;;;21.90;;
39982;SDS011;25670;44.782;10.356;2024-02-23T07:18:09;35.80;;;20.70;;
39982;SDS011;25670;44.782;10.356;2024-02-23T07:20:35;32.03;;;21.05;;
39982;SDS011;25670;44.782;10.356;2024-02-23T07:23:02;31.10;;;22.60;;
39982;SDS011;25670;44.782;10.356;2024-02-23T07:25:28;35.28;;;21.17;;
39982;SDS011;25670;44.782;10.356;2024-02-23T07:27:55;42.33;;;22.70;;
39982;SDS011;25670;44.782;10.356;2024-02-23T07:30:21;39.22;;;22.17;;
39982;SDS011;25670;44.782;10.356;2024-02-23T07:32:48;40.85;;;22.45;;
39982;SDS011;25670;44.782;10.356;2024-02-23T07:35:14;39.30;;;23.02;;
39982;SDS011;25670;44.782;10.356;2024-02-23T07:37:40;41.00;;;24.98;;
39982;SDS011;25670;44.782;10.356;2024-02-23T07:40:07;46.15;;;25.33;;
39982;SDS011;25670;44.782;10.356;2024-02-23T07:42:33;41.95;;;25.85;;
39982;SDS011;25670;44.782;10.356;2024-02-23T07:45:03;48.60;;;28.15;;
39982;SDS011;25670;44.782;10.356;2024-02-23T07:47:30;53.33;;;26.67;;
39982;SDS011;25670;44.782;10.356;2024-02-23T07:49:57;43.72;;;26.00;;
39982;SDS011;25670;44.782;10.356;2024-02-23T07:52:24;45.03;;;25.95;;
39982;SDS011;25670;44.782;10.356;2024-02-23T07:54:51;45.00;;;25.33;;
39982;SDS011;25670;44.782;10.356;2024-02-23T07:57:18;47.60;;;27.00;;
39982;SDS011;25670;44.782;10.356;2024-02-23T07:59:45;43.75;;;26.13;;
39982;SDS011;25670;44.782;10.356;2024-02-23T08:02:11;47.22;;;27.20;;
39982;SDS011;25670;44.782;10.356;2024-02-23T08:04:38;45.78;;;28.05;;
39982;SDS011;25670;44.782;10.356;2024-02-23T08:07:04;47.47;;;26.27;;
39982;SDS011;25670;44.782;10.356;2024-02-23T08:09:30;42.78;;;26.30;;
39982;SDS011;25670;44.782;10.356;2024-02-23T08:11:57;41.35;;;25.17;;
39982;SDS011;25670;44.782;10.356;2024-02-23T08:14:24;41.33;;;24.98;;
39982;SDS011;25670;44.782;10.356;2024-02-23T08:16:50;44.78;;;24.83;;
39982;SDS011;25670;44.782;10.356;2024-02-23T08:19:17;33.38;;;24.02;;
39982;SDS011;25670;44.782;10.356;2024-02-23T08:21:43;40.13;;;22.35;;
39982;SDS011;25670;44.782;10.356;2024-02-23T08:24:09;34.58;;;23.02;;
39982;SDS011;25670;44.782;10.356;2024-02-23T08:26:36;34.42;;;21.80;;
39982;SDS011;25670;44.782;10.356;2024-02-23T08:29:04;30.65;;;20.92;;
39982;SDS011;25670;44.782;10.356;2024-02-23T08:31:30;28.83;;;19.70;;
39982;SDS011;25670;44.782;10.356;2024-02-23T08:33:57;28.52;;;19.55;;
39982;SDS011;25670;44.782;10.356;2024-02-23T08:36:23;26.33;;;19.50;;
39982;SDS011;25670;44.782;10.356;2024-02-23T08:38:50;23.70;;;18.05;;
39982;SDS011;25670;44.782;10.356;2024-02-23T08:41:16;29.73;;;18.58;;
39982;SDS011;25670;44.782;10.356;2024-02-23T08:43:42;23.77;;;17.58;;
39982;SDS011;25670;44.782;10.356;2024-02-23T08:46:08;19.88;;;16.88;;
39982;SDS011;25670;44.782;10.356;2024-02-23T08:48:35;17.50;;;15.02;;
39982;SDS011;25670;44.782;10.356;2024-02-23T08:51:01;18.10;;;15.13;;
39982;SDS011;25670;44.782;10.356;2024-02-23T08:53:27;17.55;;;14.05;;
39982;SDS011;25670;44.782;10.356;2024-02-23T08:55:53;16.08;;;13.88;;
39982;SDS011;25670;44.782;10.356;2024-02-23T08:58:20;13.85;;;12.65;;
39982;SDS011;25670;44.782;10.356;2024-02-23T09:00:47;16.40;;;12.88;;
39982;SDS011;25670;44.782;10.356;2024-02-23T09:03:13;13.07;;;11.93;;
39982;SDS011;25670;44.782;10.356;2024-02-23T09:05:40;15.70;;;12.05;;
39982;SDS011;25670;44.782;10.356;2024-02-23T09:08:06;10.15;;;9.23;;
39982;SDS011;25670;44.782;10.356;2024-02-23T09:10:32;11.52;;;10.43;;
39982;SDS011;25670;44.782;10.356;2024-02-23T09:12:59;11.90;;;10.93;;
39982;SDS011;25670;44.782;10.356;2024-02-23T09:15:26;12.43;;;11.30;;
39982;SDS011;25670;44.782;10.356;2024-02-23T09:17:52;11.95;;;10.93;;
39982;SDS011;25670;44.782;10.356;2024-02-23T09:20:18;12.80;;;10.02;;
39982;SDS011;25670;44.782;10.356;2024-02-23T09:22:45;11.00;;;10.00;;
39982;SDS011;25670;44.782;10.356;2024-02-23T09:25:11;15.00;;;9.40;;
39982;SDS011;25670;44.782;10.356;2024-02-23T09:27:37;10.40;;;9.52;;
39982;SDS011;25670;44.782;10.356;2024-02-23T09:30:12;10.65;;;9.40;;
39982;SDS011;25670;44.782;10.356;2024-02-23T09:32:39;10.35;;;9.50;;
39982;SDS011;25670;44.782;10.356;2024-02-23T09:35:05;11.52;;;10.45;;
39982;SDS011;25670;44.782;10.356;2024-02-23T09:37:32;11.60;;;10.52;;
39982;SDS011;25670;44.782;10.356;2024-02-23T09:39:59;13.60;;;12.10;;
39982;SDS011;25670;44.782;10.356;2024-02-23T09:42:25;15.90;;;11.98;;
39982;SDS011;25670;44.782;10.356;2024-02-23T09:44:57;14.18;;;12.35;;
39982;SDS011;25670;44.782;10.356;2024-02-23T09:47:27;11.70;;;10.50;;
39982;SDS011;25670;44.782;10.356;2024-02-23T09:49:54;12.20;;;10.93;;
39982;SDS011;25670;44.782;10.356;2024-02-23T09:52:22;12.98;;;11.38;;
39982;SDS011;25670;44.782;10.356;2024-02-23T09:54:48;14.15;;;11.80;;
39982;SDS011;25670;44.782;10.356;2024-02-23T09:57:15;12.60;;;11.40;;
39982;SDS011;25670;44.782;10.356;2024-02-23T09:59:44;12.52;;;11.30;;
39982;SDS011;25670;44.782;10.356;2024-02-23T10:02:14;12.77;;;11.60;;
39982;SDS011;25670;44.782;10.356;2024-02-23T10:04:42;12.40;;;11.13;;
39982;SDS011;25670;44.782;10.356;2024-02-23T10:07:09;12.18;;;11.00;;
39982;SDS011;25670;44.782;10.356;2024-02-23T10:09:36;11.18;;;10.07;;
39982;SDS011;25670;44.782;10.356;2024-02-23T10:12:03;11.15;;;10.07;;
39982;SDS011;25670;44.782;10.356;2024-02-23T10:14:29;15.00;;;11.35;;
39982;SDS011;25670;44.782;10.356;2024-02-23T10:16:55;11.23;;;10.15;;
39982;SDS011;25670;44.782;10.356;2024-02-23T10:19:22;10.75;;;9.00;;
39982;SDS011;25670;44.782;10.356;2024-02-23T10:21:55;10.25;;;9.35;;
39982;SDS011;25670;44.782;10.356;2024-02-23T10:24:22;10.98;;;9.50;;
39982;SDS011;25670;44.782;10.356;2024-02-23T10:26:51;8.57;;;7.97;;
39982;SDS011;25670;44.782;10.356;2024-02-23T10:29:18;8.77;;;8.18;;
39982;SDS011;25670;44.782;10.356;2024-02-23T10:31:46;8.13;;;7.53;;
39982;SDS011;25670;44.782;10.356;2024-02-23T10:34:16;8.40;;;7.75;;
39982;SDS011;25670;44.782;10.356;2024-02-23T10:36:46;8.00;;;7.38;;
39982;SDS011;25670;44.782;10.356;2024-02-23T10:39:17;7.90;;;7.25;;
39982;SDS011;25670;44.782;10.356;2024-02-23T10:41:56;8.05;;;7.35;;
39982;SDS011;25670;44.782;10.356;2024-02-23T10:44:24;6.07;;;5.68;;
39982;SDS011;25670;44.782;10.356;2024-02-23T10:46:52;6.40;;;6.00;;
39982;SDS011;25670;44.782;10.356;2024-02-23T10:49:20;7.00;;;6.47;;
39982;SDS011;25670;44.782;10.356;2024-02-23T10:51:52;5.65;;;5.25;;
39982;SDS011;25670;44.782;10.356;2024-02-23T10:54:19;6.68;;;6.20;;
39982;SDS011;25670;44.782;10.356;2024-02-23T10:56:48;6.30;;;5.90;;
39982;SDS011;25670;44.782;10.356;2024-02-23T10:59:19;6.25;;;5.75;;
39982;SDS011;25670;44.782;10.356;2024-02-23T11:01:49;7.93;;;7.32;;
39982;SDS011;25670;44.782;10.356;2024-02-23T11:04:17;7.63;;;6.93;;
39982;SDS011;25670;44.782;10.356;2024-02-23T11:06:49;10.95;;;6.90;;
39982;SDS011;25670;44.782;10.356;2024-02-23T11:09:20;7.75;;;7.25;;
39982;SDS011;25670;44.782;10.356;2024-02-23T11:11:54;9.02;;;6.90;;
39982;SDS011;25670;44.782;10.356;2024-02-23T11:17:18;7.85;;;7.35;;
39982;SDS011;25670;44.782;10.356;2024-02-23T11:19:46;7.05;;;6.60;;
39982;SDS011;25670;44.782;10.356;2024-02-23T11:22:23;6.55;;;6.05;;
39982;SDS011;25670;44.782;10.356;2024-02-23T11:25:00;6.60;;;6.20;;
39982;SDS011;25670;44.782;10.356;2024-02-23T11:27:37;7.72;;;7.15;;
39982;SDS011;25670;44.782;10.356;2024-02-23T11:30:07;6.88;;;5.80;;
39982;SDS011;25670;44.782;10.356;2024-02-23T11:35:09;6.28;;;5.88;;
39982;SDS011;25670;44.782;10.356;2024-02-23T11:37:45;6.47;;;5.97;;
39982;SDS011;25670;44.782;10.356;2024-02-23T11:40:25;7.20;;;6.70;;
39982;SDS011;25670;44.782;10.356;2024-02-23T11:42:52;6.55;;;5.85;;
39982;SDS011;25670;44.782;10.356;2024-02-23T11:45:20;6.35;;;5.97;;
39982;SDS011;25670;44.782;10.356;2024-02-23T11:47:47;6.13;;;5.63;;
39982;SDS011;25670;44.782;10.356;2024-02-23T11:50:14;6.65;;;6.10;;
39982;SDS011;25670;44.782;10.356;2024-02-23T11:52:42;6.80;;;6.40;;
39982;SDS011;25670;44.782;10.356;2024-02-23T11:55:09;7.50;;;7.00;;
39982;SDS011;25670;44.782;10.356;2024-02-23T11:57:35;8.43;;;7.13;;
39982;SDS011;25670;44.782;10.356;2024-02-23T12:00:02;7.85;;;6.40;;
39982;SDS011;25670;44.782;10.356;2024-02-23T12:02:30;7.15;;;6.55;;
39982;SDS011;25670;44.782;10.356;2024-02-23T12:04:57;7.50;;;6.95;;
39982;SDS011;25670;44.782;10.356;2024-02-23T12:07:24;7.47;;;6.85;;
39982;SDS011;25670;44.782;10.356;2024-02-23T12:09:52;7.60;;;6.95;;
39982;SDS011;25670;44.782;10.356;2024-02-23T12:12:19;6.85;;;6.43;;
39982;SDS011;25670;44.782;10.356;2024-02-23T12:14:45;7.53;;;6.93;;
39982;SDS011;25670;44.782;10.356;2024-02-23T12:17:13;7.93;;;7.43;;
39982;SDS011;25670;44.782;10.356;2024-02-23T12:19:40;12.00;;;10.23;;
39982;SDS011;25670;44.782;10.356;2024-02-23T12:22:07;8.50;;;7.90;;
39982;SDS011;25670;44.782;10.356;2024-02-23T12:24:35;9.10;;;8.40;;
39982;SDS011;25670;44.782;10.356;2024-02-23T12:27:02;8.30;;;7.70;;
39982;SDS011;25670;44.782;10.356;2024-02-23T12:29:30;9.10;;;8.40;;
39982;SDS011;25670;44.782;10.356;2024-02-23T12:32:06;8.30;;;7.70;;
39982;SDS011;25670;44.782;10.356;2024-02-23T12:34:33;8.60;;;7.90;;
39982;SDS011;25670;44.782;10.356;2024-02-23T12:37:02;9.50;;;8.63;;
39982;SDS011;25670;44.782;10.356;2024-02-23T12:39:29;8.30;;;7.63;;
39982;SDS011;25670;44.782;10.356;2024-02-23T12:41:56;8.30;;;7.80;;
39982;SDS011;25670;44.782;10.356;2024-02-23T12:44:22;12.63;;;8.98;;
39982;SDS011;25670;44.782;10.356;2024-02-23T12:46:49;9.80;;;9.10;;
39982;SDS011;25670;44.782;10.356;2024-02-23T12:49:15;10.10;;;9.32;;
39982;SDS011;25670;44.782;10.356;2024-02-23T12:51:42;9.95;;;9.25;;
39982;SDS011;25670;44.782;10.356;2024-02-23T12:54:08;9.80;;;9.20;;
39982;SDS011;25670;44.782;10.356;2024-02-23T12:56:35;18.55;;;15.88;;
39982;SDS011;25670;44.782;10.356;2024-02-23T12:59:01;13.25;;;10.30;;
39982;SDS011;25670;44.782;10.356;2024-02-23T13:01:28;10.02;;;9.23;;
39982;SDS011;25670;44.782;10.356;2024-02-23T13:03:54;9.40;;;8.68;;
39982;SDS011;25670;44.782;10.356;2024-02-23T13:06:21;10.88;;;9.98;;
39982;SDS011;25670;44.782;10.356;2024-02-23T13:08:47;10.90;;;9.75;;
39982;SDS011;25670;44.782;10.356;2024-02-23T13:11:14;10.73;;;9.85;;
39982;SDS011;25670;44.782;10.356;2024-02-23T13:13:40;11.25;;;10.43;;
39982;SDS011;25670;44.782;10.356;2024-02-23T13:16:07;9.93;;;9.10;;
39982;SDS011;25670;44.782;10.356;2024-02-23T13:18:34;10.70;;;9.82;;
39982;SDS011;25670;44.782;10.356;2024-02-23T13:21:00;10.45;;;8.75;;
39982;SDS011;25670;44.782;10.356;2024-02-23T13:23:27;11.80;;;10.70;;
39982;SDS011;25670;44.782;10.356;2024-02-23T13:25:53;10.85;;;9.82;;
39982;SDS011;25670;44.782;10.356;2024-02-23T13:28:20;13.15;;;9.23;;
39982;SDS011;25670;44.782;10.356;2024-02-23T13:30:46;18.13;;;15.32;;
39982;SDS011;25670;44.782;10.356;2024-02-23T13:33:13;16.08;;;14.65;;
39982;SDS011;25670;44.782;10.356;2024-02-23T13:35:41;10.35;;;9.45;;
39982;SDS011;25670;44.782;10.356;2024-02-23T13:38:09;9.88;;;9.18;;
39982;SDS011;25670;44.782;10.356;2024-02-23T13:40:35;9.95;;;9.18;;
39982;SDS011;25670;44.782;10.356;2024-02-23T13:43:01;11.77;;;8.98;;
39982;SDS011;25670;44.782;10.356;2024-02-23T13:45:28;12.05;;;10.35;;
39982;SDS011;25670;44.782;10.356;2024-02-23T13:47:55;12.25;;;11.02;;
39982;SDS011;25670;44.782;10.356;2024-02-23T13:50:27;10.35;;;9.50;;
39982;SDS011;25670;44.782;10.356;2024-02-23T13:52:54;10.38;;;9.55;;
39982;SDS011;25670;44.782;10.356;2024-02-23T13:55:20;10.23;;;9.52;;
39982;SDS011;25670;44.782;10.356;2024-02-23T13:57:47;9.45;;;8.60;;
39982;SDS011;25670;44.782;10.356;2024-02-23T14:00:15;10.02;;;9.23;;
39982;SDS011;25670;44.782;10.356;2024-02-23T14:02:43;8.80;;;8.05;;
39982;SDS011;25670;44.782;10.356;2024-02-23T14:05:10;8.65;;;7.95;;
39982;SDS011;25670;44.782;10.356;2024-02-23T14:07:37;8.35;;;7.80;;
39982;SDS011;25670;44.782;10.356;2024-02-23T14:10:04;10.25;;;9.45;;
39982;SDS011;25670;44.782;10.356;2024-02-23T14:12:31;10.63;;;9.82;;
39982;SDS011;25670;44.782;10.356;2024-02-23T14:14:57;12.65;;;10.35;;
39982;SDS011;25670;44.782;10.356;2024-02-23T14:17:24;11.48;;;10.57;;
39982;SDS011;25670;44.782;10.356;2024-02-23T14:19:50;11.10;;;10.38;;